createdAt,value
2023-04-05T00:01:54.407Z,4.55
2023-04-05T00:04:21.387Z,4.13
2023-04-05T00:06:52.855Z,4.25
2023-04-05T00:09:20.774Z,4.23
2023-04-05T00:11:47.969Z,3.60
2023-04-05T00:14:15.334Z,3.60
2023-04-05T00:16:42.287Z,3.85
2023-04-05T00:19:11.032Z,3.75
2023-04-05T00:21:39.312Z,3.65
2023-04-05T00:24:06.370Z,3.63
2023-04-05T00:26:32.984Z,3.80
2023-04-05T00:28:59.619Z,4.13
2023-04-05T00:31:26.317Z,3.33
2023-04-05T00:33:53.289Z,3.70
2023-04-05T00:36:21.027Z,3.58
2023-04-05T00:38:49.790Z,3.65
2023-04-05T00:41:16.795Z,3.78
2023-04-05T00:43:43.834Z,4.10
2023-04-05T00:46:10.812Z,4.20
2023-04-05T00:48:38.375Z,4.60
2023-04-05T00:51:09.122Z,6.35
2023-04-05T00:53:36.193Z,5.18
2023-04-05T00:56:03.036Z,5.20
2023-04-05T00:58:30.647Z,5.10
2023-04-05T01:01:19.627Z,4.75
2023-04-05T01:03:53.745Z,4.88
2023-04-05T01:06:34.420Z,4.60
2023-04-05T01:09:23.290Z,4.45
2023-04-05T01:11:55.716Z,4.68
2023-04-05T01:14:22.455Z,4.85
2023-04-05T01:16:58.025Z,5.40
2023-04-05T01:19:30.126Z,4.97
2023-04-05T01:22:20.248Z,4.57
2023-04-05T01:25:10.998Z,5.40
2023-04-05T01:28:10.378Z,5.03
2023-04-05T01:30:39.985Z,5.13
2023-04-05T01:33:17.074Z,4.80
2023-04-05T01:36:14.297Z,5.35
2023-04-05T01:38:44.085Z,4.28
2023-04-05T01:41:12.195Z,4.90
2023-04-05T01:43:38.819Z,5.38
2023-04-05T01:46:05.572Z,5.10
2023-04-05T01:48:32.403Z,4.93
2023-04-05T01:51:00.762Z,5.22
2023-04-05T01:53:27.285Z,4.65
2023-04-05T01:55:54.186Z,4.70
2023-04-05T01:58:20.831Z,4.97
2023-04-05T02:00:47.576Z,4.05
2023-04-05T02:03:14.316Z,4.63
2023-04-05T02:05:42.269Z,4.90
2023-04-05T02:08:10.023Z,4.93
2023-04-05T02:10:36.617Z,5.10
2023-04-05T02:13:03.332Z,4.28
2023-04-05T02:15:30.304Z,4.20
2023-04-05T02:17:57.808Z,5.55
2023-04-05T02:20:26.024Z,4.95
2023-04-05T02:22:53.682Z,4.22
2023-04-05T02:25:21.997Z,4.40
2023-04-05T02:27:48.685Z,4.03
2023-04-05T02:30:15.576Z,5.45
2023-04-05T02:32:42.676Z,4.70
2023-04-05T02:35:09.710Z,4.20
2023-04-05T02:37:36.641Z,4.45
2023-04-05T02:40:07.896Z,4.97
2023-04-05T02:42:34.443Z,4.40
2023-04-05T02:45:01.162Z,6.03
2023-04-05T02:47:28.032Z,5.72
2023-04-05T02:49:58.034Z,6.43
2023-04-05T02:52:27.411Z,5.55
2023-04-05T02:54:54.121Z,6.25
2023-04-05T02:57:25.839Z,6.15
2023-04-05T03:00:00.712Z,6.00
2023-04-05T03:02:29.817Z,5.25
2023-04-05T03:04:56.461Z,4.93
2023-04-05T03:07:25.771Z,5.85
2023-04-05T03:09:53.964Z,6.72
2023-04-05T03:12:21.632Z,5.70
2023-04-05T03:14:49.301Z,5.20
2023-04-05T03:17:20.454Z,5.70
2023-04-05T03:19:56.604Z,6.28
2023-04-05T03:22:25.426Z,5.95
2023-04-05T03:24:52.797Z,5.95
2023-04-05T03:27:21.860Z,6.72
2023-04-05T03:30:05.975Z,6.10
2023-04-05T03:32:37.086Z,4.83
2023-04-05T03:35:16.847Z,6.10
2023-04-05T03:37:46.344Z,6.13
2023-04-05T03:40:13.529Z,5.60
2023-04-05T03:42:40.596Z,5.63
2023-04-05T03:45:07.667Z,5.57
2023-04-05T03:47:34.928Z,4.68
2023-04-05T03:50:05.863Z,4.72
2023-04-05T03:52:32.486Z,5.50
2023-04-05T03:55:00.105Z,5.35
2023-04-05T03:57:30.272Z,5.82
2023-04-05T04:00:00.250Z,4.93
2023-04-05T04:02:30.156Z,5.15
2023-04-05T04:04:57.795Z,5.30
2023-04-05T04:07:26.717Z,5.15
2023-04-05T04:09:55.370Z,5.47
2023-04-05T04:12:22.570Z,6.45
2023-04-05T04:14:55.889Z,6.65
2023-04-05T04:17:41.702Z,5.80
2023-04-05T04:20:29.545Z,6.03
2023-04-05T04:23:19.419Z,5.88
2023-04-05T04:26:09.617Z,5.10
2023-04-05T04:28:38.689Z,5.45
2023-04-05T04:31:23.855Z,5.47
2023-04-05T04:34:02.323Z,7.35
2023-04-05T04:37:00.763Z,6.25
2023-04-05T04:39:48.722Z,6.60
2023-04-05T04:42:38.817Z,6.18
2023-04-05T04:45:24.323Z,6.10
2023-04-05T04:48:01.257Z,5.97
2023-04-05T04:50:50.085Z,6.88
2023-04-05T04:53:20.958Z,6.15
2023-04-05T04:55:49.980Z,7.35
2023-04-05T04:58:17.352Z,7.32
2023-04-05T05:00:52.869Z,6.78
2023-04-05T05:03:19.511Z,7.05
2023-04-05T05:05:48.628Z,7.05
2023-04-05T05:10:52.496Z,6.13
2023-04-05T05:13:19.176Z,5.97
2023-04-05T05:15:46.684Z,4.80
2023-04-05T05:18:13.493Z,6.70
2023-04-05T05:20:41.526Z,5.75
2023-04-05T05:23:08.436Z,7.32
2023-04-05T05:25:35.206Z,6.70
2023-04-05T05:28:01.802Z,6.03
2023-04-05T05:30:29.586Z,5.53
2023-04-05T05:32:57.831Z,5.90
2023-04-05T05:35:24.507Z,6.68
2023-04-05T05:37:52.528Z,7.07
2023-04-05T05:40:19.242Z,5.50
2023-04-05T05:42:45.902Z,5.63
2023-04-05T05:45:12.548Z,6.40
2023-04-05T05:47:39.299Z,6.43
2023-04-05T05:50:07.279Z,6.13
2023-04-05T05:52:35.872Z,6.32
2023-04-05T05:55:02.526Z,7.22
2023-04-05T05:57:29.201Z,6.72
2023-04-05T05:59:55.705Z,7.65
2023-04-05T06:02:22.387Z,6.97
2023-04-05T06:04:49.711Z,6.63
2023-04-05T06:07:16.389Z,7.32
2023-04-05T06:09:45.208Z,8.00
2023-04-05T06:12:11.921Z,7.05
2023-04-05T06:14:38.569Z,6.90
2023-04-05T06:17:05.261Z,6.93
2023-04-05T06:19:31.922Z,6.90
2023-04-05T06:22:00.747Z,6.28
2023-04-05T06:24:31.673Z,6.10
2023-04-05T06:26:58.934Z,6.18
2023-04-05T06:29:25.961Z,5.95
2023-04-05T06:31:53.237Z,6.20
2023-04-05T06:34:19.921Z,7.05
2023-04-05T06:36:46.686Z,6.95
2023-04-05T06:39:14.386Z,5.32
2023-04-05T06:41:41.066Z,5.63
2023-04-05T06:44:07.786Z,6.38
2023-04-05T06:46:36.728Z,6.28
2023-04-05T06:49:04.123Z,5.82
2023-04-05T06:51:31.362Z,5.25
2023-04-05T06:53:58.103Z,5.90
2023-04-05T06:56:24.938Z,6.03
2023-04-05T06:58:51.661Z,5.80
2023-04-05T07:01:18.605Z,5.75
2023-04-05T07:03:45.492Z,5.70
2023-04-05T07:06:12.817Z,5.65
2023-04-05T07:08:39.488Z,6.25
2023-04-05T07:11:06.090Z,5.75
2023-04-05T07:13:32.708Z,5.60
2023-04-05T07:16:01.191Z,5.93
2023-04-05T07:18:28.301Z,5.78
2023-04-05T07:20:59.995Z,5.38
2023-04-05T07:23:27.976Z,6.10
2023-04-05T07:25:55.008Z,5.35
2023-04-05T07:28:21.637Z,5.80
2023-04-05T07:30:48.551Z,5.85
2023-04-05T07:33:15.960Z,5.97
2023-04-05T07:35:43.022Z,5.43
2023-04-05T07:38:11.265Z,5.75
2023-04-05T07:40:37.934Z,5.93
2023-04-05T07:43:04.731Z,5.68
2023-04-05T07:45:31.397Z,4.47
2023-04-05T07:47:58.126Z,5.13
2023-04-05T07:50:24.765Z,5.88
2023-04-05T07:52:51.364Z,5.60
2023-04-05T07:55:18.077Z,5.20
2023-04-05T07:57:44.632Z,5.57
2023-04-05T08:00:13.230Z,5.60
2023-04-05T08:02:40.241Z,5.78
2023-04-05T08:05:07.214Z,5.28
2023-04-05T08:07:33.857Z,4.63
2023-04-05T08:10:00.713Z,5.05
2023-04-05T08:12:27.355Z,5.10
2023-04-05T08:14:54.152Z,5.22
2023-04-05T08:17:20.818Z,5.50
2023-04-05T08:19:49.948Z,5.10
2023-04-05T08:22:17.786Z,5.97
2023-04-05T08:24:45.021Z,5.22
2023-04-05T08:27:12.286Z,5.40
2023-04-05T08:29:39.012Z,5.22
2023-04-05T08:32:06.114Z,5.22
2023-04-05T08:34:32.812Z,5.15
2023-04-05T08:37:00.048Z,5.03
2023-04-05T08:39:26.919Z,5.55
2023-04-05T08:42:16.852Z,5.00
2023-04-05T08:44:45.061Z,5.35
2023-04-05T08:47:15.246Z,4.95
2023-04-05T08:49:45.789Z,5.40
2023-04-05T08:52:12.784Z,5.43
2023-04-05T08:54:39.503Z,5.65
2023-04-05T08:57:07.538Z,5.00
2023-04-05T08:59:39.069Z,5.53
2023-04-05T09:02:12.236Z,5.00
2023-04-05T09:04:44.757Z,5.55
2023-04-05T09:07:14.232Z,4.78
2023-04-05T09:09:46.169Z,5.35
2023-04-05T09:12:14.068Z,5.05
2023-04-05T09:14:41.620Z,4.25
2023-04-05T09:17:08.387Z,4.38
2023-04-05T09:19:35.123Z,4.45
2023-04-05T09:22:08.842Z,4.72
2023-04-05T09:24:43.958Z,4.60
2023-04-05T09:27:12.731Z,4.90
2023-04-05T09:29:51.051Z,3.88
2023-04-05T09:32:19.332Z,4.18
2023-04-05T09:34:46.297Z,4.40
2023-04-05T09:37:24.332Z,4.60
2023-04-05T09:40:01.660Z,4.28
2023-04-05T09:42:32.127Z,4.18
2023-04-05T09:45:05.037Z,4.53
2023-04-05T09:47:42.199Z,3.80
2023-04-05T09:50:14.894Z,4.80
2023-04-05T09:52:42.415Z,4.82
2023-04-05T09:55:09.719Z,5.03
2023-04-05T09:57:38.674Z,5.32
2023-04-05T10:00:06.821Z,5.35
2023-04-05T10:02:41.422Z,5.28
2023-04-05T10:05:13.732Z,4.78
2023-04-05T10:07:41.441Z,4.47
2023-04-05T10:10:12.795Z,5.40
2023-04-05T10:12:41.490Z,4.70
2023-04-05T10:15:09.370Z,5.30
2023-04-05T10:17:53.374Z,5.32
2023-04-05T10:20:25.333Z,4.93
2023-04-05T10:22:51.971Z,5.93
2023-04-05T10:25:24.153Z,5.25
2023-04-05T10:27:57.662Z,5.15
2023-04-05T10:30:28.046Z,4.95
2023-04-05T10:33:12.877Z,5.53
2023-04-05T10:35:54.494Z,4.50
2023-04-05T10:38:29.055Z,5.18
2023-04-05T10:41:06.861Z,5.03
2023-04-05T10:43:35.376Z,5.07
2023-04-05T10:46:04.165Z,5.22
2023-04-05T10:49:12.141Z,5.07
2023-04-05T10:51:39.406Z,4.60
2023-04-05T10:54:09.932Z,5.80
2023-04-05T10:56:37.571Z,4.90
2023-04-05T10:59:05.263Z,5.10
2023-04-05T11:01:33.213Z,5.45
2023-04-05T11:04:14.997Z,5.15
2023-04-05T11:06:42.976Z,4.95
2023-04-05T11:09:16.377Z,5.18
2023-04-05T11:11:51.773Z,4.90
2023-04-05T11:14:40.942Z,4.80
2023-04-05T11:17:25.415Z,4.93
2023-04-05T11:19:52.519Z,5.20
2023-04-05T11:22:29.066Z,5.25
2023-04-05T11:25:01.819Z,5.15
2023-04-05T11:27:30.568Z,4.65
2023-04-05T11:29:59.194Z,5.00
2023-04-05T11:33:00.536Z,5.47
2023-04-05T11:35:27.973Z,4.88
2023-04-05T11:38:01.058Z,4.93
2023-04-05T11:40:36.187Z,4.80
2023-04-05T11:43:09.534Z,4.40
2023-04-05T11:45:44.962Z,4.80
2023-04-05T11:48:14.686Z,5.03
2023-04-05T11:50:42.406Z,4.75
2023-04-05T11:53:12.795Z,4.85
2023-04-05T11:55:47.272Z,4.78
2023-04-05T11:58:23.795Z,5.65
2023-04-05T12:01:07.117Z,4.68
2023-04-05T12:03:36.835Z,4.72
2023-04-05T12:06:05.606Z,3.92
2023-04-05T12:08:52.993Z,4.03
2023-04-05T12:11:31.128Z,4.68
2023-04-05T12:13:59.879Z,4.55
2023-04-05T12:16:27.153Z,4.65
2023-04-05T12:19:02.775Z,4.75
2023-04-05T12:21:29.508Z,4.32
2023-04-05T12:23:56.732Z,4.85
2023-04-05T12:26:23.998Z,4.28
2023-04-05T12:28:56.215Z,4.70
2023-04-05T12:31:57.450Z,4.85
2023-04-05T12:34:27.869Z,4.93
2023-04-05T12:36:54.618Z,5.00
2023-04-05T12:39:21.365Z,4.70
2023-04-05T12:41:59.415Z,4.75
2023-04-05T12:44:30.381Z,4.43
2023-04-05T12:47:07.485Z,4.40
2023-04-05T12:49:38.290Z,5.30
2023-04-05T12:52:04.932Z,4.30
2023-04-05T12:54:32.340Z,4.70
2023-04-05T12:57:01.582Z,4.10
2023-04-05T12:59:28.120Z,4.40
2023-04-05T13:01:54.832Z,4.35
2023-04-05T13:04:23.130Z,4.50
2023-04-05T13:06:50.134Z,4.43
2023-04-05T13:09:17.180Z,5.07
2023-04-05T13:11:43.928Z,5.03
2023-04-05T13:14:10.634Z,3.92
2023-04-05T13:16:37.301Z,4.32
2023-04-05T13:19:04.023Z,3.92
2023-04-05T13:21:30.974Z,4.70
2023-04-05T13:23:57.593Z,4.85
2023-04-05T13:26:24.291Z,4.63
2023-04-05T13:28:50.926Z,5.10
2023-04-05T13:31:17.596Z,5.07
2023-04-05T13:33:44.355Z,5.20
2023-04-05T13:36:12.533Z,4.70
2023-04-05T13:38:39.743Z,4.78
2023-04-05T13:41:06.595Z,4.75
2023-04-05T13:43:33.197Z,4.07
2023-04-05T13:45:59.895Z,4.35
2023-04-05T13:48:26.605Z,4.25
2023-04-05T13:50:53.236Z,4.50
2023-04-05T13:53:19.860Z,4.57
2023-04-05T13:55:46.491Z,4.72
2023-04-05T13:58:14.370Z,4.45
2023-04-05T14:00:41.518Z,4.72
2023-04-05T14:03:08.626Z,4.82
2023-04-05T14:05:35.436Z,5.43
2023-04-05T14:08:02.053Z,4.85
2023-04-05T14:10:28.663Z,5.22
2023-04-05T14:12:55.202Z,4.53
2023-04-05T14:15:21.879Z,4.10
2023-04-05T14:17:48.670Z,5.03
2023-04-05T14:20:15.612Z,5.30
2023-04-05T14:22:42.274Z,5.05
2023-04-05T14:25:09.293Z,4.80
2023-04-05T14:27:41.159Z,4.63
2023-04-05T14:30:09.103Z,4.60
2023-04-05T14:32:35.740Z,5.15
2023-04-05T14:35:02.368Z,4.65
2023-04-05T14:37:29.011Z,4.65
2023-04-05T14:39:55.663Z,5.03
2023-04-05T14:42:22.787Z,5.10
2023-04-05T14:44:49.436Z,5.22
2023-04-05T14:47:16.360Z,4.93
2023-04-05T14:49:42.988Z,5.30
2023-04-05T14:52:09.844Z,5.30
2023-04-05T14:54:36.558Z,4.88
2023-04-05T14:57:03.310Z,5.20
2023-04-05T14:59:30.881Z,4.72
2023-04-05T15:01:57.823Z,4.82
2023-04-05T15:04:25.348Z,4.95
2023-04-05T15:06:51.984Z,4.75
2023-04-05T15:09:18.626Z,4.80
2023-04-05T15:11:45.306Z,5.45
2023-04-05T15:14:21.064Z,4.50
2023-04-05T15:16:55.678Z,4.45
2023-04-05T15:19:22.324Z,5.50
2023-04-05T15:21:48.949Z,5.57
2023-04-05T15:24:15.733Z,5.47
2023-04-05T15:26:42.296Z,5.10
2023-04-05T15:29:08.943Z,5.05
2023-04-05T15:31:36.022Z,5.25
2023-04-05T15:34:02.892Z,5.03
2023-04-05T15:36:29.982Z,5.10
2023-04-05T15:38:58.145Z,4.78
2023-04-05T15:41:24.813Z,5.85
2023-04-05T15:43:51.466Z,5.30
2023-04-05T15:46:18.274Z,5.40
2023-04-05T15:48:45.296Z,4.95
2023-04-05T15:51:12.374Z,5.05
2023-04-05T15:53:39.013Z,5.15
2023-04-05T15:56:06.061Z,5.50
2023-04-05T15:58:32.603Z,5.63
2023-04-05T16:00:59.292Z,5.10
2023-04-05T16:03:26.134Z,5.60
2023-04-05T16:05:52.793Z,5.18
2023-04-05T16:08:19.457Z,5.80
2023-04-05T16:10:46.122Z,5.00
2023-04-05T16:13:12.825Z,5.30
2023-04-05T16:15:39.526Z,4.75
2023-04-05T16:18:06.733Z,5.72
2023-04-05T16:20:33.434Z,4.28
2023-04-05T16:23:00.400Z,4.80
2023-04-05T16:25:31.703Z,5.25
2023-04-05T16:28:00.467Z,4.60
2023-04-05T16:30:31.088Z,5.38
2023-04-05T16:32:58.322Z,4.88
2023-04-05T16:35:25.350Z,4.65
2023-04-05T16:37:52.206Z,5.72
2023-04-05T16:40:18.884Z,4.90
2023-04-05T16:42:45.863Z,5.93
2023-04-05T16:45:12.567Z,5.72
2023-04-05T16:47:39.197Z,5.15
2023-04-05T16:50:06.475Z,4.82
2023-04-05T16:52:33.122Z,5.50
2023-04-05T16:54:59.829Z,5.50
2023-04-05T16:57:26.625Z,6.15
2023-04-05T16:59:53.377Z,6.22
2023-04-05T17:02:20.221Z,6.13
2023-04-05T17:04:46.952Z,6.20
2023-04-05T17:07:13.570Z,5.75
2023-04-05T17:09:40.456Z,5.95
2023-04-05T17:12:07.269Z,5.55
2023-04-05T17:14:33.929Z,5.50
2023-04-05T17:17:00.625Z,5.80
2023-04-05T17:19:27.466Z,5.82
2023-04-05T17:21:54.122Z,5.30
2023-04-05T17:24:20.912Z,6.00
2023-04-05T17:26:47.702Z,5.40
2023-04-05T17:29:14.531Z,6.55
2023-04-05T17:31:42.169Z,4.72
2023-04-05T17:34:13.008Z,6.93
2023-04-05T17:36:40.273Z,5.55
2023-04-05T17:39:07.120Z,6.15
2023-04-05T17:41:33.893Z,6.38
2023-04-05T17:44:00.521Z,6.00
2023-04-05T17:46:39.749Z,5.50
2023-04-05T17:49:08.208Z,5.18
2023-04-05T17:51:34.914Z,5.95
2023-04-05T17:54:01.626Z,4.88
2023-04-05T17:56:28.261Z,6.40
2023-04-05T17:58:54.940Z,6.55
2023-04-05T18:01:21.621Z,5.75
2023-04-05T18:03:48.308Z,5.80
2023-04-05T18:06:17.171Z,6.55
2023-04-05T18:08:43.794Z,6.20
2023-04-05T18:11:10.522Z,6.22
2023-04-05T18:13:37.180Z,5.88
2023-04-05T18:16:03.971Z,6.07
2023-04-05T18:18:31.483Z,5.65
2023-04-05T18:21:01.743Z,5.85
2023-04-05T18:23:28.577Z,5.93
2023-04-05T18:25:55.496Z,6.25
2023-04-05T18:28:23.637Z,6.30
2023-04-05T18:30:51.649Z,6.93
2023-04-05T18:33:18.760Z,6.40
2023-04-05T18:35:50.421Z,6.63
2023-04-05T18:38:17.228Z,6.37
2023-04-05T18:40:43.902Z,6.18
2023-04-05T18:43:10.671Z,6.07
2023-04-05T18:45:38.751Z,6.95
2023-04-05T18:48:05.819Z,6.13
2023-04-05T18:50:32.608Z,5.32
2023-04-05T18:52:59.243Z,6.38
2023-04-05T18:55:25.900Z,6.22
2023-04-05T18:57:52.501Z,6.90
2023-04-05T19:00:19.450Z,6.63
2023-04-05T19:02:46.149Z,6.57
2023-04-05T19:05:13.023Z,6.15
2023-04-05T19:07:39.705Z,6.72
2023-04-05T19:10:07.122Z,7.03
2023-04-05T19:12:33.739Z,6.55
2023-04-05T19:15:00.496Z,6.78
2023-04-05T19:17:27.481Z,7.05
2023-04-05T19:19:54.117Z,6.53
2023-04-05T19:22:20.845Z,6.95
2023-04-05T19:24:47.426Z,7.07
2023-04-05T19:27:14.099Z,7.22
2023-04-05T19:29:40.746Z,8.50
2023-04-05T19:32:08.920Z,8.27
2023-04-05T19:34:37.785Z,7.97
2023-04-05T19:37:04.627Z,6.97
2023-04-05T19:39:33.564Z,6.90
2023-04-05T19:42:00.243Z,7.53
2023-04-05T19:44:48.036Z,6.97
2023-04-05T19:47:14.723Z,7.43
2023-04-05T19:49:42.406Z,6.43
2023-04-05T19:52:12.821Z,7.47
2023-04-05T19:54:42.457Z,7.55
2023-04-05T19:57:09.875Z,7.63
2023-04-05T19:59:36.499Z,7.93
2023-04-05T20:02:19.335Z,8.90
2023-04-05T20:04:45.953Z,8.90
2023-04-05T20:07:13.089Z,8.00
2023-04-05T20:09:40.145Z,8.60
2023-04-05T20:12:07.169Z,8.18
2023-04-05T20:14:48.751Z,7.13
2023-04-05T20:17:18.670Z,7.53
2023-04-05T20:20:00.632Z,8.23
2023-04-05T20:22:28.976Z,9.35
2023-04-05T20:24:55.653Z,21.70
2023-04-05T20:27:22.372Z,48.90
2023-04-05T20:29:49.087Z,47.95
2023-04-05T20:32:17.039Z,37.22
2023-04-05T20:34:45.979Z,35.10
2023-04-05T20:37:13.405Z,32.50
2023-04-05T20:39:40.203Z,31.33
2023-04-05T20:42:08.359Z,21.38
2023-04-05T20:44:35.026Z,15.25
2023-04-05T20:47:01.735Z,11.60
2023-04-05T20:49:28.965Z,9.45
2023-04-05T20:51:57.160Z,10.23
2023-04-05T20:54:24.292Z,8.93
2023-04-05T20:56:50.997Z,8.90
2023-04-05T20:59:17.599Z,8.43
2023-04-05T21:01:47.147Z,8.85
2023-04-05T21:04:14.471Z,8.68
2023-04-05T21:06:41.644Z,7.93
2023-04-05T21:09:08.645Z,7.13
2023-04-05T21:11:35.742Z,7.68
2023-04-05T21:14:02.413Z,7.43
2023-04-05T21:16:29.131Z,7.70
2023-04-05T21:18:55.903Z,8.00
2023-04-05T21:21:22.564Z,8.25
2023-04-05T21:23:50.028Z,7.38
2023-04-05T21:26:16.574Z,8.82
2023-04-05T21:28:43.251Z,7.50
2023-04-05T21:31:09.995Z,7.45
2023-04-05T21:33:36.699Z,7.35
2023-04-05T21:36:03.474Z,9.20
2023-04-05T21:38:30.148Z,7.72
2023-04-05T21:40:56.801Z,8.00
2023-04-05T21:43:23.464Z,7.40
2023-04-05T21:45:51.046Z,7.32
2023-04-05T21:48:17.663Z,7.85
2023-04-05T21:50:44.453Z,7.50
2023-04-05T21:53:11.201Z,8.85
2023-04-05T21:55:37.845Z,9.65
2023-04-05T21:58:04.458Z,16.23
2023-04-05T22:00:31.336Z,14.20
2023-04-05T22:02:58.070Z,12.32
2023-04-05T22:05:36.154Z,10.23
2023-04-05T22:08:05.663Z,9.00
2023-04-05T22:10:32.767Z,7.88
2023-04-05T22:12:59.479Z,8.07
2023-04-05T22:15:26.256Z,7.88
2023-04-05T22:17:53.223Z,9.10
2023-04-05T22:20:19.855Z,7.80
2023-04-05T22:22:46.734Z,7.22
2023-04-05T22:25:13.447Z,7.90
2023-04-05T22:27:40.397Z,7.22
2023-04-05T22:30:08.462Z,7.38
2023-04-05T22:32:35.707Z,6.63
2023-04-05T22:35:04.327Z,7.10
2023-04-05T22:37:35.586Z,7.38
2023-04-05T22:40:04.323Z,7.32
2023-04-05T22:42:31.165Z,7.05
2023-04-05T22:44:57.790Z,7.28
2023-04-05T22:47:24.579Z,7.03
2023-04-05T22:49:51.886Z,6.47
2023-04-05T22:52:18.572Z,7.38
2023-04-05T22:54:45.324Z,7.10
2023-04-05T22:57:12.848Z,7.63
2023-04-05T22:59:39.495Z,8.60
2023-04-05T23:02:06.324Z,6.70
2023-04-05T23:04:32.940Z,6.95
2023-04-05T23:06:59.589Z,7.22
2023-04-05T23:09:27.203Z,6.68
2023-04-05T23:11:53.752Z,7.43
2023-04-05T23:14:20.457Z,7.95
2023-04-05T23:16:47.072Z,6.95
2023-04-05T23:19:13.702Z,7.47
2023-04-05T23:21:40.319Z,7.47
2023-04-05T23:24:07.355Z,7.20
2023-04-05T23:26:34.328Z,7.05
2023-04-05T23:29:01.010Z,6.75
2023-04-05T23:31:27.774Z,6.40
2023-04-05T23:33:54.785Z,6.63
2023-04-05T23:36:22.079Z,6.35
2023-04-05T23:38:48.984Z,6.63
2023-04-05T23:41:15.699Z,6.47
2023-04-05T23:43:42.313Z,6.93
2023-04-05T23:46:09.030Z,6.80
2023-04-05T23:48:35.795Z,6.30
2023-04-05T23:51:02.373Z,6.13
2023-04-05T23:53:29.009Z,5.95
2023-04-05T23:55:56.884Z,5.97
2023-04-05T23:58:23.847Z,7.05
